createdAt,value
2022-11-26T00:01:21.844Z,96784.41
2022-11-26T00:03:49.937Z,96774.03
2022-11-26T00:06:30.042Z,96788.78
2022-11-26T00:08:57.024Z,96785.22
2022-11-26T00:11:24.244Z,96785.56
2022-11-26T00:13:51.113Z,96786.03
2022-11-26T00:16:18.133Z,96787.19
2022-11-26T00:18:45.114Z,96785.56
2022-11-26T00:21:21.856Z,96791.81
2022-11-26T00:23:49.334Z,96792.84
2022-11-26T00:26:19.573Z,96794.44
2022-11-26T00:29:02.415Z,96804.16
2022-11-26T00:31:29.939Z,96795.94
2022-11-26T00:33:57.314Z,96806.06
2022-11-26T00:36:27.692Z,96803.47
2022-11-26T00:39:04.333Z,96805.91
2022-11-26T00:41:34.237Z,96811.25
2022-11-26T00:44:01.913Z,96820.44
2022-11-26T00:46:29.034Z,96825.44
2022-11-26T00:48:56.294Z,96834.22
2022-11-26T00:51:26.115Z,96842.19
2022-11-26T00:53:55.955Z,96831.38
2022-11-26T00:56:23.773Z,96838.81
2022-11-26T00:58:51.479Z,96840.19
2022-11-26T01:01:22.438Z,96836.31
2022-11-26T01:03:49.753Z,96844.84
2022-11-26T01:06:22.835Z,96851.25
2022-11-26T01:08:50.915Z,96850.63
2022-11-26T01:11:21.133Z,96851.97
2022-11-26T01:13:50.059Z,96853.94
2022-11-26T01:16:24.771Z,96861.88
2022-11-26T01:18:54.054Z,96855.09
2022-11-26T01:21:22.414Z,96868.69
2022-11-26T01:23:49.261Z,96862.34
2022-11-26T01:26:25.514Z,96852.59
2022-11-26T01:28:52.605Z,96853.84
2022-11-26T01:31:25.673Z,96852.47
2022-11-26T01:33:53.315Z,96855.34
2022-11-26T01:36:30.854Z,96860.16
2022-11-26T01:39:13.834Z,96857.81
2022-11-26T01:42:03.253Z,96850.63
2022-11-26T01:44:33.734Z,96860.91
2022-11-26T01:47:01.434Z,96863.31
2022-11-26T01:49:34.732Z,96868.06
2022-11-26T01:52:04.754Z,96864.59
2022-11-26T01:54:35.317Z,96865.03
2022-11-26T01:57:30.307Z,96857.03
2022-11-26T02:00:01.715Z,96866.50
2022-11-26T02:02:40.669Z,96868.41
2022-11-26T02:05:31.878Z,96870.38
2022-11-26T02:07:59.414Z,96863.22
2022-11-26T02:10:26.414Z,96859.28
2022-11-26T02:12:53.573Z,96861.69
2022-11-26T02:15:23.616Z,96864.09
2022-11-26T02:17:58.114Z,96871.50
2022-11-26T02:20:37.318Z,96870.50
2022-11-26T02:23:25.996Z,96874.38
2022-11-26T02:26:26.495Z,96882.94
2022-11-26T02:29:17.996Z,96881.16
2022-11-26T02:32:14.076Z,96886.06
2022-11-26T02:34:49.333Z,96882.25
2022-11-26T02:37:28.853Z,96885.66
2022-11-26T02:39:57.560Z,96885.66
2022-11-26T02:42:32.127Z,96900.28
2022-11-26T02:45:22.514Z,96898.50
2022-11-26T02:47:52.821Z,96899.09
2022-11-26T02:50:25.917Z,96904.91
2022-11-26T02:52:57.434Z,96907.09
2022-11-26T02:55:29.293Z,96902.16
2022-11-26T02:57:57.852Z,96905.63
2022-11-26T03:00:25.442Z,96905.63
2022-11-26T03:03:00.553Z,96906.25
2022-11-26T03:05:31.273Z,96915.66
2022-11-26T03:08:00.029Z,96910.09
2022-11-26T03:10:29.395Z,96915.75
2022-11-26T03:12:56.453Z,96917.97
2022-11-26T03:15:23.495Z,96921.53
2022-11-26T03:17:51.914Z,96919.31
2022-11-26T03:20:19.376Z,96924.88
2022-11-26T03:22:46.533Z,96917.72
2022-11-26T03:25:13.615Z,96912.28
2022-11-26T03:27:40.734Z,96923.72
2022-11-26T03:30:08.515Z,96922.84
2022-11-26T03:32:35.934Z,96912.69
2022-11-26T03:35:03.393Z,96916.47
2022-11-26T03:37:30.481Z,96921.28
2022-11-26T03:39:57.457Z,96924.13
2022-11-26T03:42:24.736Z,96930.56
2022-11-26T03:44:51.753Z,96922.41
2022-11-26T03:47:18.781Z,96928.28
2022-11-26T03:49:45.814Z,96931.97
2022-11-26T03:52:13.321Z,96934.47
2022-11-26T03:54:40.659Z,96932.25
2022-11-26T03:57:08.237Z,96939.88
2022-11-26T03:59:35.257Z,96950.25
2022-11-26T04:02:02.394Z,96955.78
2022-11-26T04:04:29.655Z,96950.59
2022-11-26T04:06:56.766Z,96959.34
2022-11-26T04:09:23.954Z,96954.00
2022-11-26T04:11:50.975Z,96954.00
2022-11-26T04:14:18.015Z,96961.41
2022-11-26T04:16:45.145Z,96970.78
2022-11-26T04:19:12.255Z,96966.09
2022-11-26T04:21:39.215Z,96970.88
2022-11-26T04:24:07.294Z,96969.56
2022-11-26T04:26:34.474Z,96976.19
2022-11-26T04:29:01.494Z,96987.72
2022-11-26T04:31:28.585Z,96979.56
2022-11-26T04:33:55.652Z,96987.16
2022-11-26T04:36:22.674Z,96989.34
2022-11-26T04:38:49.694Z,96996.31
2022-11-26T04:41:16.714Z,96992.81
2022-11-26T04:43:43.677Z,96993.78
2022-11-26T04:46:10.709Z,97002.56
2022-11-26T04:48:37.755Z,97002.19
2022-11-26T04:51:04.896Z,97002.56
2022-11-26T04:53:31.935Z,97014.38
2022-11-26T04:55:59.039Z,97018.03
2022-11-26T04:58:26.095Z,97018.38
2022-11-26T05:00:53.510Z,97024.75
2022-11-26T05:03:20.715Z,97027.41
2022-11-26T05:05:47.911Z,97025.19
2022-11-26T05:08:15.315Z,97040.31
2022-11-26T05:10:42.375Z,97048.53
2022-11-26T05:13:09.615Z,97052.38
2022-11-26T05:15:36.590Z,97039.41
2022-11-26T05:18:04.002Z,97044.41
2022-11-26T05:20:31.564Z,97044.50
2022-11-26T05:22:58.570Z,97047.53
2022-11-26T05:25:25.499Z,97043.59
2022-11-26T05:27:52.483Z,97053.34
2022-11-26T05:30:19.471Z,97059.34
2022-11-26T05:32:46.815Z,97060.22
2022-11-26T05:35:13.902Z,97061.47
2022-11-26T05:37:40.884Z,97069.44
2022-11-26T05:40:08.979Z,97067.47
2022-11-26T05:42:36.559Z,97071.34
2022-11-26T05:45:04.919Z,97079.38
2022-11-26T05:47:31.940Z,97083.31
2022-11-26T05:49:58.970Z,97073.94
2022-11-26T05:52:26.108Z,97077.94
2022-11-26T05:54:53.094Z,97079.38
2022-11-26T05:57:20.411Z,97091.38
2022-11-26T05:59:49.351Z,97085.53
2022-11-26T06:02:16.530Z,97088.94
2022-11-26T06:04:43.664Z,97087.41
2022-11-26T06:07:10.820Z,97090.47
2022-11-26T06:09:37.978Z,97093.88
2022-11-26T06:12:05.469Z,97098.06
2022-11-26T06:14:32.724Z,97108.72
2022-11-26T06:16:59.717Z,97104.16
2022-11-26T06:19:26.803Z,97114.31
2022-11-26T06:21:53.926Z,97119.00
2022-11-26T06:24:20.842Z,97125.06
2022-11-26T06:26:47.923Z,97126.41
2022-11-26T06:29:14.856Z,97134.50
2022-11-26T06:31:41.854Z,97131.28
2022-11-26T06:34:08.908Z,97143.09
2022-11-26T06:36:36.040Z,97142.28
2022-11-26T06:39:03.698Z,97148.28
2022-11-26T06:41:30.619Z,97147.47
2022-11-26T06:43:59.506Z,97148.09
2022-11-26T06:46:26.541Z,97149.06
2022-11-26T06:48:53.508Z,97151.94
2022-11-26T06:51:27.917Z,97158.38
2022-11-26T06:53:55.051Z,97163.31
2022-11-26T06:56:22.209Z,97158.13
2022-11-26T06:58:50.045Z,97167.16
2022-11-26T07:01:26.442Z,97167.97
2022-11-26T07:03:53.901Z,97176.13
2022-11-26T07:06:25.320Z,97181.56
2022-11-26T07:08:53.990Z,97181.94
2022-11-26T07:11:22.041Z,97183.19
2022-11-26T07:13:49.572Z,97186.84
2022-11-26T07:16:16.954Z,97196.69
2022-11-26T07:18:49.178Z,97205.75
2022-11-26T07:21:16.447Z,97203.38
2022-11-26T07:23:43.518Z,97209.47
2022-11-26T07:26:12.017Z,97213.94
2022-11-26T07:28:39.683Z,97218.59
2022-11-26T07:31:14.677Z,97214.81
2022-11-26T07:33:44.330Z,97220.44
2022-11-26T07:36:23.259Z,97223.13
2022-11-26T07:38:50.837Z,97226.78
2022-11-26T07:41:19.717Z,97229.09
2022-11-26T07:43:47.243Z,97235.34
2022-11-26T07:46:16.568Z,97234.41
2022-11-26T07:48:44.198Z,97238.06
2022-11-26T07:51:21.340Z,97243.75
2022-11-26T07:53:49.488Z,97236.19
2022-11-26T07:56:16.707Z,97241.09
2022-11-26T07:58:43.891Z,97235.94
2022-11-26T08:01:13.434Z,97235.63
2022-11-26T08:03:43.038Z,97240.50
2022-11-26T08:06:12.277Z,97241.16
2022-11-26T08:08:39.746Z,97247.84
2022-11-26T08:11:22.658Z,97257.34
2022-11-26T08:13:53.509Z,97254.00
2022-11-26T08:16:20.568Z,97260.28
2022-11-26T08:18:47.547Z,97261.72
2022-11-26T08:21:14.503Z,97259.16
2022-11-26T08:23:41.618Z,97260.59
2022-11-26T08:26:23.853Z,97254.63
2022-11-26T08:28:52.821Z,97266.50
2022-11-26T08:31:20.551Z,97259.50
2022-11-26T08:33:47.627Z,97257.13
2022-11-26T08:36:14.687Z,97265.19
2022-11-26T08:38:41.926Z,97272.22
2022-11-26T08:41:12.426Z,97266.59
2022-11-26T08:44:05.003Z,97272.06
2022-11-26T08:46:27.368Z,97275.69
2022-11-26T08:48:57.612Z,97282.31
2022-11-26T08:51:25.717Z,97281.53
2022-11-26T08:53:53.467Z,97276.94
2022-11-26T08:56:20.378Z,97282.97
2022-11-26T08:58:49.263Z,97282.75
2022-11-26T09:01:17.864Z,97281.75
2022-11-26T09:03:47.498Z,97284.81
2022-11-26T09:06:14.529Z,97283.59
2022-11-26T09:09:00.187Z,97290.03
2022-11-26T09:11:27.927Z,97283.84
2022-11-26T09:13:55.568Z,97277.00
2022-11-26T09:16:23.183Z,97281.03
2022-11-26T09:18:51.167Z,97289.69
2022-11-26T09:21:19.005Z,97288.47
2022-11-26T09:23:45.986Z,97288.72
2022-11-26T09:26:13.097Z,97279.06
2022-11-26T09:28:40.108Z,97280.25
2022-11-26T09:31:07.428Z,97287.88
2022-11-26T09:33:34.429Z,97285.41
2022-11-26T09:36:06.462Z,97279.53
2022-11-26T09:38:34.660Z,97277.28
2022-11-26T09:41:19.756Z,97285.34
2022-11-26T09:44:18.227Z,97291.72
2022-11-26T09:47:09.958Z,97287.03
2022-11-26T09:49:38.380Z,97284.78
2022-11-26T09:52:08.653Z,97280.34
2022-11-26T09:54:39.683Z,97290.22
2022-11-26T09:57:20.376Z,97292.47
2022-11-26T09:59:49.779Z,97296.28
2022-11-26T10:02:16.857Z,97295.88
2022-11-26T10:04:44.138Z,97288.81
2022-11-26T10:07:36.205Z,97286.19
2022-11-26T10:10:16.432Z,97287.75
2022-11-26T10:13:19.815Z,97286.22
2022-11-26T10:15:50.668Z,97290.91
2022-11-26T10:18:55.165Z,97279.81
2022-11-26T10:21:57.209Z,97284.66
2022-11-26T10:24:33.238Z,97275.00
2022-11-26T10:27:05.268Z,97280.53
2022-11-26T10:29:46.521Z,97288.59
2022-11-26T10:32:13.407Z,97285.13
2022-11-26T10:34:50.862Z,97286.16
2022-11-26T10:37:19.774Z,97289.41
2022-11-26T10:39:46.788Z,97281.72
2022-11-26T10:42:21.470Z,97276.25
2022-11-26T10:44:52.950Z,97287.72
2022-11-26T10:47:23.905Z,97286.34
2022-11-26T10:49:53.119Z,97277.19
2022-11-26T10:52:28.727Z,97283.47
2022-11-26T10:55:18.807Z,97275.19
2022-11-26T10:57:51.921Z,97275.13
2022-11-26T11:00:39.056Z,97278.72
2022-11-26T11:03:38.589Z,97284.06
2022-11-26T11:06:34.346Z,97284.81
2022-11-26T11:09:12.477Z,97293.56
2022-11-26T11:11:39.539Z,97292.34
2022-11-26T11:14:16.668Z,97285.19
2022-11-26T11:16:46.367Z,97282.13
2022-11-26T11:19:26.459Z,97291.84
2022-11-26T11:21:54.240Z,97284.38
2022-11-26T11:24:27.448Z,97285.56
2022-11-26T11:27:00.579Z,97282.56
2022-11-26T11:29:30.135Z,97282.22
2022-11-26T11:31:57.979Z,97283.97
2022-11-26T11:34:33.087Z,97279.34
2022-11-26T11:37:03.238Z,97278.34
2022-11-26T11:39:34.910Z,97278.47
2022-11-26T11:42:04.823Z,97280.97
2022-11-26T11:44:44.608Z,97285.63
2022-11-26T11:47:14.822Z,97289.28
2022-11-26T11:49:58.749Z,97286.50
2022-11-26T11:53:04.644Z,97285.97
2022-11-26T11:56:02.503Z,97290.13
2022-11-26T11:58:32.559Z,97280.16
2022-11-26T12:13:24.749Z,97264.38
2022-11-26T12:16:06.285Z,97260.75
2022-11-26T12:18:42.158Z,97268.44
2022-11-26T12:21:13.260Z,97249.53
2022-11-26T12:23:53.376Z,97248.50
2022-11-26T12:26:48.767Z,97243.75
2022-11-26T12:29:24.253Z,97248.88
2022-11-26T12:32:05.413Z,97251.94
2022-11-26T12:34:39.484Z,97246.63
2022-11-26T12:37:25.321Z,97247.63
2022-11-26T12:40:04.543Z,97245.84
2022-11-26T12:42:42.361Z,97243.66
2022-11-26T12:45:22.810Z,97241.75
2022-11-26T12:47:57.640Z,97240.13
2022-11-26T12:50:48.291Z,97240.56
2022-11-26T12:53:30.394Z,97239.34
2022-11-26T12:56:06.667Z,97242.09
2022-11-26T12:58:39.580Z,97237.09
2022-11-26T13:01:08.120Z,97227.72
2022-11-26T13:03:35.099Z,97226.56
2022-11-26T13:06:08.121Z,97230.25
2022-11-26T13:08:56.106Z,97235.50
2022-11-26T13:11:44.898Z,97240.78
2022-11-26T13:14:27.346Z,97231.78
2022-11-26T13:17:09.726Z,97238.41
2022-11-26T13:19:51.156Z,97241.25
2022-11-26T13:22:37.217Z,97243.91
2022-11-26T13:25:35.144Z,97252.13
2022-11-26T13:28:07.845Z,97248.09
2022-11-26T13:30:57.131Z,97248.59
2022-11-26T13:33:36.731Z,97256.66
2022-11-26T13:36:29.599Z,97255.00
2022-11-26T13:39:24.250Z,97260.94
2022-11-26T13:42:00.159Z,97256.78
2022-11-26T13:44:41.040Z,97268.53
2022-11-26T13:47:18.621Z,97270.63
2022-11-26T13:50:03.659Z,97281.00
2022-11-26T13:52:36.666Z,97273.38
2022-11-26T13:55:09.463Z,97278.66
2022-11-26T13:57:44.363Z,97279.81
2022-11-26T14:00:12.126Z,97276.13
2022-11-26T14:02:42.844Z,97287.97
2022-11-26T14:05:16.338Z,97294.00
2022-11-26T14:07:45.834Z,97295.00
2022-11-26T14:10:41.662Z,97298.28
2022-11-26T14:13:11.288Z,97289.03
2022-11-26T14:15:40.994Z,97295.03
2022-11-26T14:18:09.677Z,97292.34
2022-11-26T14:20:57.740Z,97294.16
2022-11-26T14:23:43.835Z,97298.31
2022-11-26T14:26:37.901Z,97296.34
2022-11-26T14:29:07.901Z,97292.72
2022-11-26T14:31:38.631Z,97301.28
2022-11-26T14:34:14.449Z,97296.25
2022-11-26T14:36:53.442Z,97303.84
2022-11-26T14:39:20.510Z,97308.47
2022-11-26T14:41:47.557Z,97311.16
2022-11-26T14:44:17.010Z,97318.47
2022-11-26T14:46:48.604Z,97319.50
2022-11-26T14:49:29.357Z,97317.75
2022-11-26T14:51:57.397Z,97316.38
2022-11-26T14:54:38.596Z,97322.28
2022-11-26T14:57:15.041Z,97326.06
2022-11-26T15:00:04.137Z,97331.19
2022-11-26T15:02:32.033Z,97329.63
2022-11-26T15:05:04.629Z,97329.41
2022-11-26T15:07:32.314Z,97328.25
2022-11-26T15:10:27.746Z,97333.50
2022-11-26T15:12:59.139Z,97331.72
2022-11-26T15:15:26.209Z,97334.75
2022-11-26T15:18:01.171Z,97341.63
2022-11-26T15:20:28.495Z,97343.84
2022-11-26T15:22:59.697Z,97350.72
2022-11-26T15:25:33.299Z,97356.38
2022-11-26T15:28:05.297Z,97357.38
2022-11-26T15:30:37.539Z,97357.19
2022-11-26T15:33:13.969Z,97356.22
2022-11-26T15:35:41.637Z,97355.41
2022-11-26T15:38:18.551Z,97347.78
2022-11-26T15:40:48.577Z,97347.38
2022-11-26T15:43:23.975Z,97347.38
2022-11-26T15:45:53.962Z,97345.59
2022-11-26T15:48:50.401Z,97353.81
2022-11-26T15:51:35.514Z,97352.22
2022-11-26T15:54:06.181Z,97350.38
2022-11-26T15:56:37.944Z,97360.63
2022-11-26T15:59:15.777Z,97366.22
2022-11-26T16:01:46.323Z,97366.78
2022-11-26T16:04:38.325Z,97366.13
2022-11-26T16:07:11.071Z,97371.31
2022-11-26T16:09:38.068Z,97375.72
2022-11-26T16:12:05.246Z,97369.66
2022-11-26T16:14:35.293Z,97372.84
2022-11-26T16:17:17.289Z,97374.34
2022-11-26T16:19:59.407Z,97372.75
2022-11-26T16:22:32.663Z,97375.03
2022-11-26T16:25:18.942Z,97376.97
2022-11-26T16:28:02.819Z,97372.91
2022-11-26T16:30:29.837Z,97377.34
2022-11-26T16:32:57.000Z,97376.53
2022-11-26T16:38:26.174Z,97375.91
2022-11-26T16:40:54.444Z,97376.72
2022-11-26T16:43:21.280Z,97382.47
2022-11-26T16:45:49.700Z,97376.84
2022-11-26T16:48:24.382Z,97383.63
2022-11-26T16:50:52.551Z,97388.41
2022-11-26T16:53:19.538Z,97394.38
2022-11-26T16:55:47.211Z,97389.09
2022-11-26T16:58:26.008Z,97388.47
2022-11-26T17:00:53.719Z,97390.19
2022-11-26T17:03:22.969Z,97393.59
2022-11-26T17:05:54.330Z,97385.38
2022-11-26T17:08:21.590Z,97395.16
2022-11-26T17:10:48.659Z,97389.31
2022-11-26T17:13:15.997Z,97384.69
2022-11-26T17:15:44.194Z,97390.44
2022-11-26T17:18:19.314Z,97392.22
2022-11-26T17:20:46.818Z,97388.56
2022-11-26T17:23:14.252Z,97392.38
2022-11-26T17:25:43.309Z,97393.91
2022-11-26T17:28:14.598Z,97392.91
2022-11-26T17:30:43.673Z,97396.72
2022-11-26T17:33:11.356Z,97403.25
2022-11-26T17:35:38.609Z,97397.19
2022-11-26T17:38:15.881Z,97403.31
2022-11-26T17:40:44.090Z,97405.50
2022-11-26T17:43:11.097Z,97401.00
2022-11-26T17:45:39.669Z,97399.75
2022-11-26T17:48:10.128Z,97403.34
2022-11-26T17:50:37.114Z,97398.69
2022-11-26T17:53:04.131Z,97394.66
2022-11-26T17:55:31.662Z,97396.84
2022-11-26T17:57:59.458Z,97391.97
2022-11-26T18:00:28.926Z,97398.19
2022-11-26T18:02:56.577Z,97406.69
2022-11-26T18:05:24.414Z,97404.53
2022-11-26T18:07:51.929Z,97408.31
2022-11-26T18:10:20.769Z,97401.25
2022-11-26T18:12:49.111Z,97398.00
2022-11-26T18:15:20.348Z,97404.84
2022-11-26T18:17:52.600Z,97417.13
2022-11-26T18:20:22.208Z,97425.91
2022-11-26T18:22:54.329Z,97416.94
2022-11-26T18:25:21.627Z,97429.50
2022-11-26T18:27:49.072Z,97413.81
2022-11-26T18:30:17.284Z,97425.19
2022-11-26T18:32:44.379Z,97427.25
2022-11-26T18:35:11.847Z,97430.03
2022-11-26T18:37:40.209Z,97430.03
2022-11-26T18:40:10.509Z,97421.78
2022-11-26T18:42:38.351Z,97417.75
2022-11-26T18:45:09.299Z,97412.72
2022-11-26T18:47:36.439Z,97420.34
2022-11-26T18:50:04.290Z,97425.91
2022-11-26T18:52:31.275Z,97425.53
2022-11-26T18:54:58.340Z,97424.56
2022-11-26T18:57:25.324Z,97425.81
2022-11-26T18:59:52.359Z,97429.03
2022-11-26T19:02:19.706Z,97422.56
2022-11-26T19:04:46.744Z,97432.06
2022-11-26T19:07:14.393Z,97422.63
2022-11-26T19:09:42.526Z,97426.25
2022-11-26T19:12:12.180Z,97425.78
2022-11-26T19:14:39.218Z,97430.34
2022-11-26T19:17:06.408Z,97435.34
2022-11-26T19:19:33.648Z,97437.22
2022-11-26T19:22:01.667Z,97443.88
2022-11-26T19:24:30.390Z,97448.09
2022-11-26T19:26:57.722Z,97455.88
2022-11-26T19:29:24.788Z,97456.69
2022-11-26T19:31:51.843Z,97452.47
2022-11-26T19:34:18.842Z,97456.22
2022-11-26T19:36:48.779Z,97451.03
2022-11-26T19:39:17.044Z,97454.25
2022-11-26T19:41:44.272Z,97458.81
2022-11-26T19:44:11.575Z,97460.16
2022-11-26T19:46:41.504Z,97458.53
2022-11-26T19:49:12.031Z,97466.50
2022-11-26T19:51:39.445Z,97466.41
2022-11-26T19:54:07.062Z,97466.41
2022-11-26T19:56:34.278Z,97473.38
2022-11-26T19:59:02.489Z,97476.84
2022-11-26T20:01:30.913Z,97479.81
2022-11-26T20:03:59.971Z,97474.13
2022-11-26T20:06:28.316Z,97486.25
2022-11-26T20:08:55.521Z,97478.19
2022-11-26T20:11:23.271Z,97479.00
2022-11-26T20:13:50.608Z,97478.19
2022-11-26T20:16:20.416Z,97477.09
2022-11-26T20:18:48.202Z,97476.09
2022-11-26T20:21:20.568Z,97479.47
2022-11-26T20:23:49.136Z,97477.38
2022-11-26T20:26:19.437Z,97484.50
2022-11-26T20:28:46.628Z,97489.25
2022-11-26T20:31:18.269Z,97488.50
2022-11-26T20:33:49.313Z,97485.38
2022-11-26T20:36:18.457Z,97493.22
2022-11-26T20:38:45.525Z,97498.63
2022-11-26T20:41:16.228Z,97482.84
2022-11-26T20:43:43.589Z,97497.97
2022-11-26T20:46:12.955Z,97483.38
2022-11-26T20:48:41.810Z,97490.50
2022-11-26T20:51:11.081Z,97480.97
2022-11-26T20:53:38.809Z,97483.78
2022-11-26T20:56:06.868Z,97490.25
2022-11-26T20:58:34.676Z,97482.84
2022-11-26T21:01:02.123Z,97475.69
2022-11-26T21:03:30.062Z,97469.88
2022-11-26T21:06:02.279Z,97483.19
2022-11-26T21:08:29.377Z,97479.78
2022-11-26T21:10:56.343Z,97474.44
2022-11-26T21:13:23.295Z,97478.47
2022-11-26T21:15:50.480Z,97480.25
2022-11-26T21:18:17.561Z,97484.94
2022-11-26T21:20:44.964Z,97492.72
2022-11-26T21:23:13.201Z,97488.19
2022-11-26T21:25:41.251Z,97486.84
2022-11-26T21:28:09.392Z,97480.38
2022-11-26T21:30:37.131Z,97481.47
2022-11-26T21:33:09.240Z,97479.19
2022-11-26T21:35:37.490Z,97478.38
2022-11-26T21:38:06.060Z,97472.06
2022-11-26T21:40:33.827Z,97478.06
2022-11-26T21:43:00.906Z,97478.72
2022-11-26T21:45:28.006Z,97471.75
2022-11-26T21:47:55.019Z,97464.56
2022-11-26T21:50:22.318Z,97460.03
2022-11-26T21:52:49.455Z,97469.09
2022-11-26T21:55:16.479Z,97467.66
2022-11-26T21:57:43.420Z,97467.81
2022-11-26T22:00:10.886Z,97469.59
2022-11-26T22:02:37.874Z,97470.25
2022-11-26T22:05:05.111Z,97472.69
2022-11-26T22:07:32.407Z,97475.06
2022-11-26T22:09:59.641Z,97468.91
2022-11-26T22:12:26.622Z,97465.84
2022-11-26T22:14:53.610Z,97470.13
2022-11-26T22:17:20.669Z,97466.63
2022-11-26T22:19:47.580Z,97456.22
2022-11-26T22:22:14.719Z,97454.91
2022-11-26T22:24:41.691Z,97456.72
2022-11-26T22:27:08.587Z,97462.69
2022-11-26T22:29:35.592Z,97457.84
2022-11-26T22:32:02.522Z,97462.84
2022-11-26T22:34:29.627Z,97452.66
2022-11-26T22:36:56.616Z,97454.28
2022-11-26T22:39:23.568Z,97447.47
2022-11-26T22:41:50.490Z,97438.59
2022-11-26T22:44:17.970Z,97447.81
2022-11-26T22:46:45.458Z,97446.50
2022-11-26T22:49:14.393Z,97448.59
2022-11-26T22:51:41.862Z,97446.50
2022-11-26T22:54:12.176Z,97452.78
2022-11-26T22:56:39.599Z,97446.63
2022-11-26T22:59:08.449Z,97442.72
2022-11-26T23:01:36.769Z,97442.09
2022-11-26T23:04:05.484Z,97443.53
2022-11-26T23:06:34.371Z,97444.00
2022-11-26T23:09:03.592Z,97439.81
2022-11-26T23:11:37.550Z,97448.06
2022-11-26T23:14:07.618Z,97444.47
2022-11-26T23:16:35.784Z,97441.09
2022-11-26T23:19:03.710Z,97441.56
2022-11-26T23:21:36.299Z,97444.81
2022-11-26T23:24:03.420Z,97443.97
2022-11-26T23:26:33.738Z,97447.81
2022-11-26T23:29:02.378Z,97437.59
2022-11-26T23:31:31.719Z,97441.34
2022-11-26T23:33:59.670Z,97454.44
2022-11-26T23:36:27.987Z,97457.63
2022-11-26T23:38:55.833Z,97451.84
2022-11-26T23:41:23.267Z,97452.97
2022-11-26T23:43:50.249Z,97452.31
2022-11-26T23:46:18.910Z,97447.13
2022-11-26T23:48:46.318Z,97452.31
2022-11-26T23:51:17.073Z,97448.91
2022-11-26T23:53:45.840Z,97440.53
2022-11-26T23:56:15.951Z,97445.34
2022-11-26T23:58:43.395Z,97439.03
